Lafayette, LA

2:30 PM CDT on May 28, 2017 (GMT -0500)
Downtown | | Change Station

Elev 56 ft 30.22 °N, 92.02 °W | Updated 29 seconds ago

Light Rain
Light Rain Mist
77.2 °F
Feels Like 79 °F
N
0.2
Wind Variable Wind from NW
Gusts 2.5 mph

Today
High -- | Low -- °F
--% Chance of Precip.
Yesterday
High -- | Low -- °F
Precip. -- in
Pressure 30.00 in
Visibility 3.0 miles
Clouds Few 2600 ft
Mostly Cloudy 3300 ft
Overcast 4700 ft
Heat Index 79 °F
Dew Point 75 °F
Humidity 92%
Rainfall 0.20 in
Snow Depth Not available.
6:07 AM 8:03 PM
Waxing Crescent, 13% visible
SPECI KLFT 281910Z 06005KT 3SM -RA BR FEW026 BKN033 OVC047 24/23 A3000 RMK AO2 P0016 T02390228
Pressure 30.00 in
Visibility 3.0 miles
Clouds Few 2600 ft
Mostly Cloudy 3300 ft
Overcast 4700 ft
Heat Index 79 °F
Dew Point 75 °F
Humidity 92%
Rainfall 0.20 in
Snow Depth Not available.
6:07 AM 8:03 PM
Waxing Crescent, 13% visible
SPECI KLFT 281910Z 06005KT 3SM -RA BR FEW026 BKN033 OVC047 24/23 A3000 RMK AO2 P0016 T02390228

Get Severe Weather Alerts

Thanks for signing up!

Be on the lookout for a verification email in your inbox.

You'll start receiving the daily forecast at 6 AM.

×

10-Day Weather Forecast

Almanac

Astronomy

May. 28, 2017 Rise Set
Actual Time
Civil Twilight
Nautical Twilight
Astronomical Twilight
Moon
Length of Visible Light
Length of Day
Tomorrow will be .
, % of the Moon is Illuminated

Today's Extremes

State Highs State Lows

Community

WunderPhotos

Category 6

Welcome to Category 6. This is the collective home for Weather Underground's featured writeups by Dr. Jeff Masters (right), Bob Henson (left), Chris Burt, and other regular contributors.

Nearby

Air Quality

  Air Quality AQ Index Pollutant
Not available.

Snow Depth

Station Depth Elevation

Earthquake Activity

City Distance Mag. Time & Date
Minimum magnitude displayed is 2.5.

Coastal Water Temperatures

Place Temperature

Stations

Nearby Weather Stations

Station Location Temp. Windchill Dew Point Humidity Wind Precip. Elev Updated Type
                   

Watches & Warnings

There are currently no watches in effect.